createdAt,value
2018-05-14T00:00:23.409Z,0.00
2018-05-14T00:01:23.597Z,0.00
2018-05-14T00:02:23.730Z,0.00
2018-05-14T00:03:23.921Z,0.00
2018-05-14T00:04:24.085Z,0.00
2018-05-14T00:05:24.247Z,0.00
2018-05-14T00:06:24.413Z,0.00
2018-05-14T00:07:24.588Z,0.00
2018-05-14T00:08:24.770Z,0.00
2018-05-14T00:09:24.923Z,0.00
2018-05-14T00:10:25.104Z,0.00
2018-05-14T00:11:25.271Z,0.00
2018-05-14T00:12:25.461Z,0.00
2018-05-14T00:13:25.643Z,0.00
2018-05-14T00:14:25.803Z,0.00
2018-05-14T00:15:26.252Z,0.00
2018-05-14T00:16:26.157Z,0.00
2018-05-14T00:17:26.330Z,0.00
2018-05-14T00:18:26.499Z,0.00
2018-05-14T00:19:26.703Z,0.00
2018-05-14T00:20:26.874Z,0.00
2018-05-14T00:21:27.020Z,0.00
2018-05-14T00:22:27.176Z,0.00
2018-05-14T00:23:27.350Z,0.00
2018-05-14T00:24:27.538Z,0.00
2018-05-14T00:25:27.711Z,0.00
2018-05-14T00:26:27.881Z,0.00
2018-05-14T00:27:28.063Z,0.00
2018-05-14T00:28:28.239Z,0.00
2018-05-14T00:29:28.404Z,0.00
2018-05-14T00:30:28.561Z,0.00
2018-05-14T00:31:28.749Z,0.00
2018-05-14T00:32:28.920Z,0.00
2018-05-14T00:33:29.087Z,0.00
2018-05-14T00:34:29.269Z,0.00
2018-05-14T00:35:29.445Z,0.00
2018-05-14T00:36:29.606Z,0.00
2018-05-14T00:37:29.798Z,0.00
2018-05-14T00:38:30.001Z,0.00
2018-05-14T00:39:30.117Z,0.00
2018-05-14T00:40:30.288Z,0.00
2018-05-14T00:41:30.461Z,0.00
2018-05-14T00:42:30.610Z,0.00
2018-05-14T00:43:30.780Z,0.00
2018-05-14T00:44:30.983Z,0.00
2018-05-14T00:45:31.127Z,0.00
2018-05-14T00:46:31.286Z,0.00
2018-05-14T00:47:31.470Z,0.00
2018-05-14T00:48:31.633Z,0.00
2018-05-14T00:49:31.831Z,0.00
2018-05-14T00:50:32.010Z,0.00
2018-05-14T00:51:32.187Z,0.00
2018-05-14T00:52:32.345Z,0.00
2018-05-14T00:53:32.533Z,0.00
2018-05-14T00:54:32.723Z,0.00
2018-05-14T00:55:32.860Z,0.00
2018-05-14T00:56:33.015Z,0.00
2018-05-14T00:57:33.188Z,0.00
2018-05-14T00:58:33.343Z,0.00
2018-05-14T00:59:33.518Z,0.00
2018-05-14T01:00:33.682Z,0.00
2018-05-14T01:01:33.870Z,0.00
2018-05-14T01:02:34.025Z,0.00
2018-05-14T01:03:34.197Z,0.00
2018-05-14T01:04:34.394Z,0.00
2018-05-14T01:05:34.569Z,0.00
2018-05-14T01:06:34.774Z,0.00
2018-05-14T01:07:34.912Z,0.00
2018-05-14T01:08:35.080Z,0.00
2018-05-14T01:09:35.262Z,0.00
2018-05-14T01:10:35.427Z,0.00
2018-05-14T01:11:35.592Z,0.00
2018-05-14T01:12:35.766Z,0.00
2018-05-14T01:13:35.953Z,0.00
2018-05-14T01:14:36.118Z,0.00
2018-05-14T01:15:36.300Z,0.00
2018-05-14T01:16:36.479Z,0.00
2018-05-14T01:18:36.806Z,0.00
2018-05-14T01:19:36.982Z,0.00
2018-05-14T01:20:37.155Z,0.00
2018-05-14T01:21:37.344Z,0.00
2018-05-14T01:22:37.484Z,0.00
2018-05-14T01:23:37.653Z,0.00
2018-05-14T01:24:37.820Z,0.00
2018-05-14T01:25:38.005Z,0.00
2018-05-14T01:26:38.158Z,0.00
2018-05-14T01:27:38.357Z,0.00
2018-05-14T01:28:38.526Z,0.00
2018-05-14T01:29:38.696Z,0.00
2018-05-14T01:30:38.850Z,0.00
2018-05-14T01:31:39.009Z,0.00
2018-05-14T01:32:39.163Z,0.00
2018-05-14T01:33:39.327Z,0.00
2018-05-14T01:34:39.507Z,0.00
2018-05-14T01:35:39.673Z,0.00
2018-05-14T01:36:39.845Z,0.00
2018-05-14T01:37:40.024Z,0.00
2018-05-14T01:38:40.190Z,0.00
2018-05-14T01:39:40.359Z,0.00
2018-05-14T01:41:40.690Z,0.00
2018-05-14T01:42:40.888Z,0.00
2018-05-14T01:43:41.028Z,0.00
2018-05-14T01:44:41.208Z,0.00
2018-05-14T01:45:41.363Z,0.00
2018-05-14T01:46:41.534Z,0.00
2018-05-14T01:47:41.697Z,0.00
2018-05-14T01:48:41.864Z,0.00
2018-05-14T01:49:42.033Z,0.00
2018-05-14T01:50:42.251Z,0.00
2018-05-14T01:51:42.382Z,0.00
2018-05-14T01:52:42.544Z,0.00
2018-05-14T01:53:42.730Z,0.00
2018-05-14T01:54:42.906Z,0.00
2018-05-14T01:55:43.099Z,0.00
2018-05-14T01:56:43.245Z,0.00
2018-05-14T01:57:43.450Z,0.00
2018-05-14T01:58:43.610Z,0.00
2018-05-14T01:59:43.793Z,0.00
2018-05-14T02:00:43.949Z,0.00
2018-05-14T02:01:44.124Z,0.00
2018-05-14T02:02:44.315Z,0.00
2018-05-14T02:03:44.491Z,0.00
2018-05-14T02:04:44.659Z,0.00
2018-05-14T02:05:44.842Z,0.00
2018-05-14T02:06:45.000Z,0.00
2018-05-14T02:07:45.156Z,0.00
2018-05-14T02:08:45.314Z,0.00
2018-05-14T02:09:45.571Z,0.00
2018-05-14T02:10:45.655Z,0.00
2018-05-14T02:11:45.821Z,0.00
2018-05-14T02:12:46.005Z,0.00
2018-05-14T02:13:46.174Z,0.00
2018-05-14T02:14:46.354Z,0.00
2018-05-14T02:15:46.547Z,0.00
2018-05-14T02:16:46.698Z,0.00
2018-05-14T02:17:46.873Z,0.00
2018-05-14T02:18:47.057Z,0.00
2018-05-14T02:19:47.215Z,0.00
2018-05-14T02:20:47.389Z,0.00
2018-05-14T02:21:47.578Z,0.00
2018-05-14T02:22:47.736Z,0.00
2018-05-14T02:23:47.888Z,0.00
2018-05-14T02:24:48.046Z,0.00
2018-05-14T02:25:48.225Z,0.00
2018-05-14T02:26:48.414Z,0.00
2018-05-14T02:27:48.584Z,0.00
2018-05-14T02:28:48.752Z,0.00
2018-05-14T02:29:48.905Z,0.00
2018-05-14T02:30:49.079Z,0.00
2018-05-14T02:31:49.231Z,0.00
2018-05-14T02:32:49.397Z,0.00
2018-05-14T02:33:49.589Z,0.00
2018-05-14T02:34:49.755Z,0.00
2018-05-14T02:35:49.917Z,0.00
2018-05-14T02:36:50.086Z,0.00
2018-05-14T02:37:50.273Z,0.00
2018-05-14T02:38:50.442Z,0.00
2018-05-14T02:39:50.635Z,0.00
2018-05-14T02:40:50.789Z,0.00
2018-05-14T02:41:50.977Z,0.00
2018-05-14T02:42:51.175Z,0.00
2018-05-14T02:43:51.337Z,0.00
2018-05-14T02:44:51.485Z,0.00
2018-05-14T02:45:51.671Z,0.00
2018-05-14T02:46:51.858Z,0.00
2018-05-14T02:47:52.031Z,0.00
2018-05-14T02:48:52.191Z,0.00
2018-05-14T02:49:52.374Z,0.00
2018-05-14T02:50:52.534Z,0.00
2018-05-14T02:51:52.724Z,0.00
2018-05-14T02:52:52.865Z,0.00
2018-05-14T02:53:53.024Z,4.00
2018-05-14T02:54:53.219Z,0.00
2018-05-14T02:55:53.375Z,0.00
2018-05-14T02:56:53.544Z,4.00
2018-05-14T02:57:53.717Z,4.00
2018-05-14T02:58:53.907Z,4.00
2018-05-14T02:59:54.068Z,4.00
2018-05-14T03:00:54.225Z,4.00
2018-05-14T03:01:54.395Z,8.00
2018-05-14T03:02:54.600Z,4.00
2018-05-14T03:03:54.740Z,4.00
2018-05-14T03:04:54.944Z,8.00
2018-05-14T03:05:55.100Z,8.00
2018-05-14T03:06:55.280Z,8.00
2018-05-14T03:07:55.462Z,12.00
2018-05-14T03:08:55.640Z,12.00
2018-05-14T03:09:55.836Z,16.00
2018-05-14T03:10:55.998Z,16.00
2018-05-14T03:11:56.149Z,20.00
2018-05-14T03:12:56.330Z,24.00
2018-05-14T03:13:56.505Z,24.00
2018-05-14T03:14:56.697Z,28.00
2018-05-14T03:15:56.886Z,32.00
2018-05-14T03:16:57.037Z,32.00
2018-05-14T03:17:57.209Z,36.00
2018-05-14T03:18:57.377Z,44.00
2018-05-14T03:19:57.557Z,52.00
2018-05-14T03:20:57.740Z,56.00
2018-05-14T03:21:57.880Z,64.00
2018-05-14T03:22:58.062Z,72.00
2018-05-14T03:23:58.219Z,80.00
2018-05-14T03:24:58.395Z,84.00
2018-05-14T03:25:58.569Z,96.00
2018-05-14T03:26:58.747Z,108.00
2018-05-14T03:27:58.930Z,120.00
2018-05-14T03:28:59.111Z,128.00
2018-05-14T03:29:59.292Z,144.00
2018-05-14T03:30:59.470Z,156.00
2018-05-14T03:31:59.659Z,168.00
2018-05-14T03:32:59.837Z,184.00
2018-05-14T03:34:00.026Z,196.00
2018-05-14T03:35:00.204Z,212.00
2018-05-14T03:36:00.384Z,236.00
2018-05-14T03:37:00.545Z,256.00
2018-05-14T03:38:00.730Z,284.00
2018-05-14T03:39:00.921Z,312.00
2018-05-14T03:40:01.083Z,340.00
2018-05-14T03:41:01.250Z,364.00
2018-05-14T03:42:01.431Z,400.00
2018-05-14T03:43:01.615Z,432.00
2018-05-14T03:44:01.797Z,468.00
2018-05-14T03:45:01.977Z,500.00
2018-05-14T03:46:02.160Z,544.00
2018-05-14T03:47:02.346Z,580.00
2018-05-14T03:48:02.522Z,624.00
2018-05-14T03:49:02.709Z,664.00
2018-05-14T03:50:02.934Z,712.00
2018-05-14T03:51:03.056Z,764.00
2018-05-14T03:52:03.237Z,808.00
2018-05-14T03:53:03.416Z,860.00
2018-05-14T03:54:03.602Z,908.00
2018-05-14T03:55:03.782Z,952.00
2018-05-14T03:56:03.965Z,992.00
2018-05-14T03:57:04.149Z,1028.00
2018-05-14T03:58:04.337Z,1060.00
2018-05-14T03:59:04.516Z,1100.00
2018-05-14T04:00:04.695Z,1140.00
2018-05-14T04:01:04.875Z,1188.00
2018-05-14T04:02:05.054Z,1236.00
2018-05-14T04:03:05.233Z,1292.00
2018-05-14T04:04:05.421Z,1348.00
2018-05-14T04:05:05.600Z,1404.00
2018-05-14T04:06:05.773Z,1484.00
2018-05-14T04:07:05.954Z,1576.00
2018-05-14T04:08:06.136Z,1696.00
2018-05-14T04:09:06.318Z,1828.00
2018-05-14T04:10:06.497Z,1960.00
2018-05-14T04:11:06.674Z,2104.00
2018-05-14T04:12:06.855Z,2252.00
2018-05-14T04:13:07.031Z,2380.00
2018-05-14T04:14:07.212Z,2832.00
2018-05-14T04:15:07.383Z,5884.00
2018-05-14T04:16:07.565Z,9088.00
2018-05-14T04:17:07.752Z,9856.00
2018-05-14T04:18:07.930Z,11008.00
2018-05-14T04:19:08.114Z,12672.00
2018-05-14T04:20:08.294Z,13504.00
2018-05-14T04:21:08.476Z,14208.00
2018-05-14T04:22:08.653Z,15104.00
2018-05-14T04:23:08.836Z,15712.00
2018-05-14T04:24:09.021Z,16512.00
2018-05-14T04:25:09.206Z,17792.00
2018-05-14T04:26:09.375Z,18368.00
2018-05-14T04:27:09.561Z,18208.00
2018-05-14T04:28:09.744Z,15936.00
2018-05-14T04:29:09.926Z,14880.00
2018-05-14T04:30:10.189Z,13152.00
2018-05-14T04:31:10.627Z,10944.00
2018-05-14T04:32:10.480Z,10068.00
2018-05-14T04:33:10.657Z,11840.00
2018-05-14T04:34:10.857Z,11028.00
2018-05-14T04:35:11.035Z,11968.00
2018-05-14T04:36:11.216Z,15680.00
2018-05-14T04:37:11.403Z,19072.00
2018-05-14T04:38:11.600Z,21280.00
2018-05-14T04:39:11.788Z,21824.00
2018-05-14T04:40:11.962Z,17088.00
2018-05-14T04:41:12.147Z,12252.00
2018-05-14T04:42:13.300Z,8472.00
2018-05-14T04:43:12.514Z,7792.00
2018-05-14T04:44:12.702Z,8064.00
2018-05-14T04:45:12.883Z,8356.00
2018-05-14T04:46:13.074Z,8752.00
2018-05-14T04:47:13.257Z,9896.00
2018-05-14T04:48:13.445Z,13184.00
2018-05-14T04:49:13.619Z,16640.00
2018-05-14T04:50:13.801Z,14624.00
2018-05-14T04:51:13.989Z,15072.00
2018-05-14T04:52:14.160Z,19904.00
2018-05-14T04:53:14.339Z,23040.00
2018-05-14T04:54:14.538Z,21408.00
2018-05-14T04:55:14.706Z,18432.00
2018-05-14T04:56:14.890Z,16576.00
2018-05-14T04:57:15.069Z,14976.00
2018-05-14T04:58:15.261Z,13296.00
2018-05-14T04:59:15.529Z,12656.00
2018-05-14T05:00:15.627Z,12188.00
2018-05-14T05:01:15.816Z,12580.00
2018-05-14T05:02:15.999Z,14816.00
2018-05-14T05:03:16.193Z,18304.00
2018-05-14T05:04:16.367Z,22752.00
2018-05-14T05:05:16.553Z,26624.00
2018-05-14T05:06:16.739Z,28672.00
2018-05-14T05:07:16.929Z,29632.00
2018-05-14T05:08:17.109Z,30304.00
2018-05-14T05:09:17.296Z,30400.00
2018-05-14T05:10:17.506Z,29216.00
2018-05-14T05:11:17.664Z,28480.00
2018-05-14T05:12:17.847Z,29152.00
2018-05-14T05:13:18.043Z,32128.00
2018-05-14T05:14:18.230Z,36288.00
2018-05-14T05:15:18.422Z,40832.00
2018-05-14T05:16:18.597Z,43840.00
2018-05-14T05:17:18.800Z,45664.00
2018-05-14T05:18:18.986Z,47072.00
2018-05-14T05:19:19.169Z,48288.00
2018-05-14T05:20:19.363Z,50368.00
2018-05-14T05:21:19.537Z,52800.00
2018-05-14T05:22:19.722Z,50560.00
2018-05-14T05:23:19.909Z,50944.00
2018-05-14T05:24:20.107Z,49248.00
2018-05-14T05:25:20.287Z,49376.00
2018-05-14T05:26:20.476Z,48096.00
2018-05-14T05:27:20.662Z,47840.00
2018-05-14T05:28:20.944Z,47776.00
2018-05-14T05:29:21.042Z,46816.00
2018-05-14T05:30:21.236Z,45376.00
2018-05-14T05:31:21.423Z,43680.00
2018-05-14T05:32:21.611Z,44416.00
2018-05-14T05:33:21.801Z,47616.00
2018-05-14T05:34:21.992Z,51264.00
2018-05-14T05:35:22.182Z,51232.00
2018-05-14T05:36:22.369Z,49952.00
2018-05-14T05:37:22.564Z,48224.00
2018-05-14T05:38:22.753Z,48224.00
2018-05-14T05:39:22.941Z,51456.00
2018-05-14T05:40:23.131Z,51200.00
2018-05-14T05:41:23.301Z,48768.00
2018-05-14T05:42:23.490Z,47200.00
2018-05-14T05:43:23.681Z,46400.00
2018-05-14T05:44:23.871Z,46720.00
2018-05-14T05:45:24.093Z,47360.00
2018-05-14T05:46:24.252Z,46784.00
2018-05-14T05:47:24.447Z,46816.00
2018-05-14T05:48:24.633Z,46048.00
2018-05-14T05:49:24.826Z,46752.00
2018-05-14T05:50:25.017Z,46752.00
2018-05-14T05:51:25.207Z,42784.00
2018-05-14T05:52:25.460Z,40256.00
2018-05-14T05:53:25.604Z,43392.00
2018-05-14T05:54:25.787Z,49696.00
2018-05-14T05:55:25.983Z,54688.00
2018-05-14T05:56:26.172Z,55648.00
2018-05-14T05:57:26.364Z,52192.00
2018-05-14T05:58:26.578Z,48672.00
2018-05-14T05:59:26.757Z,48000.00
2018-05-14T06:00:26.949Z,48672.00
2018-05-14T06:01:27.130Z,50400.00
2018-05-14T06:02:27.314Z,51328.00
2018-05-14T06:03:27.512Z,50816.00
2018-05-14T06:04:27.710Z,50240.00
2018-05-14T06:05:27.901Z,50176.00
2018-05-14T06:06:28.093Z,50720.00
2018-05-14T06:07:28.287Z,51424.00
2018-05-14T06:08:28.473Z,51680.00
2018-05-14T06:09:28.758Z,51264.00
2018-05-14T06:10:28.854Z,50880.00
2018-05-14T06:11:29.041Z,51968.00
2018-05-14T06:12:29.231Z,51744.00
2018-05-14T06:13:29.457Z,49664.00
2018-05-14T06:14:29.599Z,49504.00
2018-05-14T06:15:29.900Z,51168.00
2018-05-14T06:16:29.972Z,52512.00
2018-05-14T06:17:30.171Z,53600.00
2018-05-14T06:18:30.360Z,52768.00
2018-05-14T06:19:30.564Z,52416.00
2018-05-14T06:20:30.745Z,50784.00
2018-05-14T06:21:30.943Z,48736.00
2018-05-14T06:22:31.134Z,46880.00
2018-05-14T06:23:31.314Z,48352.00
2018-05-14T06:24:31.504Z,48800.00
2018-05-14T06:25:31.703Z,48256.00
2018-05-14T06:26:31.899Z,48672.00
2018-05-14T06:27:32.076Z,48256.00
2018-05-14T06:28:32.267Z,47488.00
2018-05-14T06:29:32.459Z,47456.00
2018-05-14T06:30:32.649Z,46048.00
2018-05-14T06:31:32.843Z,44544.00
2018-05-14T06:32:33.047Z,30816.00
2018-05-14T06:33:33.222Z,29216.00
2018-05-14T06:34:33.417Z,43104.00
2018-05-14T06:35:33.665Z,43904.00
2018-05-14T06:36:33.803Z,37568.00
2018-05-14T06:37:33.999Z,43072.00
2018-05-14T06:38:34.182Z,27424.00
2018-05-14T06:39:34.373Z,39744.00
2018-05-14T06:40:34.843Z,39936.00
2018-05-14T06:41:34.781Z,39680.00
2018-05-14T06:42:34.957Z,40000.00
2018-05-14T06:43:35.137Z,40704.00
2018-05-14T06:44:35.324Z,41216.00
2018-05-14T06:45:35.516Z,41024.00
2018-05-14T06:46:35.711Z,39616.00
2018-05-14T06:47:35.886Z,39040.00
2018-05-14T06:48:36.075Z,38880.00
2018-05-14T06:49:36.284Z,38656.00
2018-05-14T06:50:36.443Z,37248.00
2018-05-14T06:51:36.634Z,36160.00
2018-05-14T06:52:36.824Z,36128.00
2018-05-14T06:53:37.015Z,35936.00
2018-05-14T06:54:37.213Z,37472.00
2018-05-14T06:55:37.401Z,37312.00
2018-05-14T06:56:37.585Z,35776.00
2018-05-14T06:57:37.780Z,36320.00
2018-05-14T06:58:37.981Z,35424.00
2018-05-14T06:59:38.163Z,30752.00
2018-05-14T07:00:38.351Z,26464.00
2018-05-14T07:01:38.549Z,17696.00
2018-05-14T07:02:38.732Z,13792.00
2018-05-14T07:03:38.923Z,12916.00
2018-05-14T07:04:39.117Z,9864.00
2018-05-14T07:05:39.396Z,8096.00
2018-05-14T07:06:39.655Z,7940.00
2018-05-14T07:07:39.795Z,7640.00
2018-05-14T07:08:39.866Z,10452.00
2018-05-14T07:09:40.046Z,12328.00
2018-05-14T07:10:40.228Z,11740.00
2018-05-14T07:11:40.424Z,18144.00
2018-05-14T07:12:40.602Z,21376.00
2018-05-14T07:13:40.822Z,31520.00
2018-05-14T07:14:40.965Z,30560.00
2018-05-14T07:15:41.494Z,29504.00
2018-05-14T07:16:41.340Z,31840.00
2018-05-14T07:17:41.526Z,30528.00
2018-05-14T07:18:41.710Z,29152.00
2018-05-14T07:19:41.884Z,29536.00
2018-05-14T07:20:42.086Z,24160.00
2018-05-14T07:21:42.298Z,20224.00
2018-05-14T07:22:42.451Z,19136.00
2018-05-14T07:23:42.631Z,20160.00
2018-05-14T07:24:42.861Z,19488.00
2018-05-14T07:26:43.189Z,18240.00
2018-05-14T07:27:43.364Z,20160.00
2018-05-14T07:28:43.553Z,20256.00
2018-05-14T07:29:43.727Z,21824.00
2018-05-14T07:30:43.914Z,17888.00
2018-05-14T07:31:44.105Z,16992.00
2018-05-14T07:32:44.284Z,20736.00
2018-05-14T07:33:44.468Z,20864.00
2018-05-14T07:34:44.656Z,20064.00
2018-05-14T07:35:44.847Z,20864.00
2018-05-14T07:36:45.040Z,21728.00
2018-05-14T07:37:45.213Z,23424.00
2018-05-14T07:38:45.406Z,21760.00
2018-05-14T07:39:45.580Z,21472.00
2018-05-14T07:40:45.789Z,22304.00
2018-05-14T07:41:45.956Z,22080.00
2018-05-14T07:42:46.142Z,21632.00
2018-05-14T07:43:46.316Z,21280.00
2018-05-14T07:44:46.499Z,21024.00
2018-05-14T07:45:46.690Z,21376.00
2018-05-14T07:46:46.883Z,21760.00
2018-05-14T07:47:47.121Z,21152.00
2018-05-14T07:48:47.254Z,20416.00
2018-05-14T07:49:47.439Z,20352.00
2018-05-14T07:50:47.613Z,20064.00
2018-05-14T07:51:47.807Z,19328.00
2018-05-14T07:52:47.979Z,18816.00
2018-05-14T07:53:48.163Z,18656.00
2018-05-14T07:54:48.349Z,18528.00
2018-05-14T07:55:48.518Z,18272.00
2018-05-14T07:56:48.702Z,17888.00
2018-05-14T07:57:48.870Z,17824.00
2018-05-14T07:58:49.044Z,17696.00
2018-05-14T07:59:49.223Z,17504.00
2018-05-14T08:00:49.436Z,17216.00
2018-05-14T08:01:49.601Z,17024.00
2018-05-14T08:02:49.788Z,17120.00
2018-05-14T08:03:49.987Z,16672.00
2018-05-14T08:04:50.179Z,16000.00
2018-05-14T08:05:50.453Z,15392.00
2018-05-14T08:06:50.559Z,14976.00
2018-05-14T08:07:50.748Z,14784.00
2018-05-14T08:08:50.939Z,14432.00
2018-05-14T08:09:51.128Z,14276.00
2018-05-14T08:10:51.574Z,14004.00
2018-05-14T08:11:51.496Z,13600.00
2018-05-14T08:12:51.691Z,13292.00
2018-05-14T08:13:51.879Z,13124.00
2018-05-14T08:14:52.070Z,12884.00
2018-05-14T08:15:52.259Z,12432.00
2018-05-14T08:16:52.451Z,12196.00
2018-05-14T08:17:52.656Z,12028.00
2018-05-14T08:18:52.835Z,11908.00
2018-05-14T08:19:53.030Z,11800.00
2018-05-14T08:20:53.213Z,11636.00
2018-05-14T08:21:53.405Z,11376.00
2018-05-14T08:22:53.587Z,11096.00
2018-05-14T08:24:53.969Z,10848.00
2018-05-14T08:25:54.157Z,10792.00
2018-05-14T08:26:54.350Z,10776.00
2018-05-14T08:27:54.538Z,10716.00
2018-05-14T08:28:54.726Z,10664.00
2018-05-14T08:29:54.912Z,10592.00
2018-05-14T08:30:55.110Z,10548.00
2018-05-14T08:31:55.304Z,10440.00
2018-05-14T08:32:55.499Z,10444.00
2018-05-14T08:33:55.681Z,10400.00
2018-05-14T08:34:55.866Z,10328.00
2018-05-14T08:35:56.069Z,10244.00
2018-05-14T08:36:56.245Z,10120.00
2018-05-14T08:37:56.440Z,10024.00
2018-05-14T08:38:56.717Z,9908.00
2018-05-14T08:39:56.811Z,9796.00
2018-05-14T08:40:56.999Z,9704.00
2018-05-14T08:41:57.191Z,9640.00
2018-05-14T08:42:57.381Z,9552.00
2018-05-14T08:43:57.616Z,9508.00
2018-05-14T08:44:57.738Z,9468.00
2018-05-14T08:45:57.917Z,9432.00
2018-05-14T08:46:58.114Z,9376.00
2018-05-14T08:47:58.388Z,9324.00
2018-05-14T08:48:58.478Z,9276.00
2018-05-14T08:49:58.663Z,9256.00
2018-05-14T08:50:58.854Z,9240.00
2018-05-14T08:51:59.225Z,9176.00
2018-05-14T08:52:59.230Z,9076.00
2018-05-14T08:53:59.397Z,9040.00
2018-05-14T08:54:59.583Z,9020.00
2018-05-14T08:55:59.835Z,9000.00
2018-05-14T08:57:00.004Z,8956.00
2018-05-14T08:58:00.097Z,8916.00
2018-05-14T08:59:00.315Z,8896.00
2018-05-14T09:00:00.565Z,8888.00
2018-05-14T09:01:00.965Z,8900.00
2018-05-14T09:02:00.926Z,8940.00
2018-05-14T09:03:01.185Z,8864.00
2018-05-14T09:04:01.565Z,8844.00
2018-05-14T09:05:01.434Z,8844.00
2018-05-14T09:06:01.654Z,8908.00
2018-05-14T09:07:01.949Z,8968.00
2018-05-14T09:08:01.984Z,8956.00
2018-05-14T09:09:02.237Z,9024.00
2018-05-14T09:10:02.633Z,9024.00
2018-05-14T09:11:02.642Z,8912.00
2018-05-14T09:12:02.862Z,8860.00
2018-05-14T09:13:03.008Z,9100.00
2018-05-14T09:14:03.233Z,9352.00
2018-05-14T09:15:03.399Z,9176.00
2018-05-14T09:16:03.561Z,9028.00
2018-05-14T09:17:03.937Z,9312.00
2018-05-14T09:18:03.919Z,9604.00
2018-05-14T09:19:04.131Z,9300.00
2018-05-14T09:20:04.293Z,8992.00
2018-05-14T09:21:04.536Z,9016.00
2018-05-14T09:22:04.832Z,9552.00
2018-05-14T09:23:04.825Z,10088.00
2018-05-14T09:24:05.007Z,10020.00
2018-05-14T09:25:05.278Z,9732.00
2018-05-14T09:26:05.361Z,9320.00
2018-05-14T09:27:05.516Z,8964.00
2018-05-14T09:28:05.707Z,8808.00
2018-05-14T09:29:05.886Z,8980.00
2018-05-14T09:30:06.066Z,8904.00
2018-05-14T09:31:06.264Z,8792.00
2018-05-14T09:32:06.433Z,8808.00
2018-05-14T09:33:06.613Z,8804.00
2018-05-14T09:34:06.772Z,8764.00
2018-05-14T09:35:06.969Z,8928.00
2018-05-14T09:36:07.166Z,9196.00
2018-05-14T09:37:07.334Z,9160.00
2018-05-14T09:38:07.593Z,8968.00
2018-05-14T09:39:07.721Z,8704.00
2018-05-14T09:40:07.910Z,8552.00
2018-05-14T09:41:08.099Z,8568.00
2018-05-14T09:42:08.272Z,8608.00
2018-05-14T09:43:08.462Z,8948.00
2018-05-14T09:44:08.670Z,9624.00
2018-05-14T09:45:08.875Z,9720.00
2018-05-14T09:46:09.048Z,9808.00
2018-05-14T09:47:09.207Z,9564.00
2018-05-14T09:48:09.401Z,9124.00
2018-05-14T09:49:09.581Z,9172.00
2018-05-14T09:50:09.774Z,9412.00
2018-05-14T09:51:09.962Z,9328.00
2018-05-14T09:52:10.097Z,9148.00
2018-05-14T09:53:10.269Z,8900.00
2018-05-14T09:54:10.463Z,8816.00
2018-05-14T09:55:10.688Z,9124.00
2018-05-14T09:56:10.851Z,9380.00
2018-05-14T09:57:11.102Z,9304.00
2018-05-14T09:58:11.193Z,9576.00
2018-05-14T09:59:11.387Z,9816.00
2018-05-14T10:00:11.575Z,9440.00
2018-05-14T10:01:11.766Z,8952.00
2018-05-14T10:02:11.939Z,8868.00
2018-05-14T10:03:12.256Z,8432.00
2018-05-14T10:04:12.372Z,7736.00
2018-05-14T10:05:12.616Z,7244.00
2018-05-14T10:06:12.868Z,7148.00
2018-05-14T10:07:13.055Z,7076.00
2018-05-14T10:08:13.112Z,7000.00
2018-05-14T10:09:13.426Z,6920.00
2018-05-14T10:10:13.515Z,6868.00
2018-05-14T10:11:13.758Z,6808.00
2018-05-14T10:12:13.953Z,6736.00
2018-05-14T10:13:14.123Z,6696.00
2018-05-14T10:14:14.337Z,6628.00
2018-05-14T10:15:14.510Z,6576.00
2018-05-14T10:16:14.673Z,6488.00
2018-05-14T10:17:14.856Z,6444.00
2018-05-14T10:18:15.016Z,6392.00
2018-05-14T10:19:15.199Z,6280.00
2018-05-14T10:20:15.387Z,6212.00
2018-05-14T10:21:15.574Z,6156.00
2018-05-14T10:22:15.756Z,6080.00
2018-05-14T10:23:15.940Z,6008.00
2018-05-14T10:24:16.197Z,5952.00
2018-05-14T10:25:16.305Z,5896.00
2018-05-14T10:26:16.517Z,5828.00
2018-05-14T10:27:16.674Z,5760.00
2018-05-14T10:28:16.853Z,5700.00
2018-05-14T10:29:17.064Z,5644.00
2018-05-14T10:30:17.215Z,5572.00
2018-05-14T10:31:17.414Z,5528.00
2018-05-14T10:32:17.572Z,5456.00
2018-05-14T10:33:17.749Z,5408.00
2018-05-14T10:34:17.942Z,5332.00
2018-05-14T10:35:18.129Z,5316.00
2018-05-14T10:36:18.324Z,5264.00
2018-05-14T10:37:18.465Z,5216.00
2018-05-14T10:38:18.653Z,5104.00
2018-05-14T10:39:18.829Z,5108.00
2018-05-14T10:40:19.002Z,5076.00
2018-05-14T10:41:19.202Z,5072.00
2018-05-14T10:42:19.359Z,4992.00
2018-05-14T10:43:20.457Z,4976.00
2018-05-14T10:44:19.716Z,4940.00
2018-05-14T10:45:19.876Z,4908.00
2018-05-14T10:46:20.056Z,4892.00
2018-05-14T10:47:20.279Z,4864.00
2018-05-14T10:48:20.393Z,4828.00
2018-05-14T10:49:20.598Z,4824.00
2018-05-14T10:50:20.732Z,4852.00
2018-05-14T10:51:20.915Z,4760.00
2018-05-14T10:52:21.089Z,4764.00
2018-05-14T10:53:21.278Z,4728.00
2018-05-14T10:54:21.489Z,4708.00
2018-05-14T10:55:21.645Z,4692.00
2018-05-14T10:56:21.841Z,4692.00
2018-05-14T10:57:21.996Z,4656.00
2018-05-14T10:58:22.165Z,4648.00
2018-05-14T10:59:22.355Z,4592.00
2018-05-14T11:00:22.598Z,4608.00
2018-05-14T11:01:22.788Z,4600.00
2018-05-14T11:02:22.936Z,4552.00
2018-05-14T11:03:23.363Z,4532.00
2018-05-14T11:04:23.312Z,4560.00
2018-05-14T11:05:23.508Z,4548.00
2018-05-14T11:06:23.660Z,4520.00
2018-05-14T11:07:23.838Z,4516.00
2018-05-14T11:08:24.036Z,4488.00
2018-05-14T11:09:24.200Z,4496.00
2018-05-14T11:10:24.647Z,4464.00
2018-05-14T11:11:24.595Z,4492.00
2018-05-14T11:12:24.745Z,4492.00
2018-05-14T11:13:24.944Z,4492.00
2018-05-14T11:14:25.141Z,4528.00
2018-05-14T11:15:25.285Z,4456.00
2018-05-14T11:16:25.458Z,4472.00
2018-05-14T11:17:25.694Z,4464.00
2018-05-14T11:18:25.837Z,4448.00
2018-05-14T11:19:25.991Z,4432.00
2018-05-14T11:20:26.202Z,4400.00
2018-05-14T11:21:26.385Z,4376.00
2018-05-14T11:22:26.578Z,4392.00
2018-05-14T11:23:26.761Z,4380.00
2018-05-14T11:24:26.959Z,4392.00
2018-05-14T11:25:27.143Z,4364.00
2018-05-14T11:26:27.342Z,4384.00
2018-05-14T11:27:27.575Z,4320.00
2018-05-14T11:28:27.698Z,4324.00
2018-05-14T11:30:28.058Z,4292.00
2018-05-14T11:31:28.249Z,4312.00
2018-05-14T11:32:28.409Z,4284.00
2018-05-14T11:33:28.618Z,4332.00
2018-05-14T11:34:28.761Z,4332.00
2018-05-14T11:35:29.031Z,4312.00
2018-05-14T11:36:29.127Z,4344.00
2018-05-14T11:37:29.268Z,4336.00
2018-05-14T11:38:29.474Z,4336.00
2018-05-14T11:39:29.652Z,4320.00
2018-05-14T11:40:29.827Z,4312.00
2018-05-14T11:41:30.023Z,4292.00
2018-05-14T11:42:30.167Z,4344.00
2018-05-14T11:43:30.473Z,4328.00
2018-05-14T11:44:33.966Z,4360.00
2018-05-14T11:45:30.832Z,4312.00
2018-05-14T11:46:30.999Z,4328.00
2018-05-14T11:47:31.202Z,4324.00
2018-05-14T11:48:31.382Z,4356.00
2018-05-14T11:49:31.590Z,4340.00
2018-05-14T11:50:31.875Z,4340.00
2018-05-14T11:51:31.932Z,4328.00
2018-05-14T11:52:32.182Z,4328.00
2018-05-14T11:53:32.246Z,4348.00
2018-05-14T11:54:32.464Z,4332.00
2018-05-14T11:55:32.618Z,4348.00
2018-05-14T11:56:32.877Z,4336.00
2018-05-14T11:57:33.000Z,4344.00
2018-05-14T11:58:33.164Z,4372.00
2018-05-14T11:59:33.343Z,4332.00
2018-05-14T12:00:33.507Z,4296.00
2018-05-14T12:01:33.675Z,4252.00
2018-05-14T12:02:33.870Z,4248.00
2018-05-14T12:03:34.049Z,4244.00
2018-05-14T12:04:34.222Z,4256.00
2018-05-14T12:05:34.405Z,4244.00
2018-05-14T12:06:34.595Z,4292.00
2018-05-14T12:07:34.804Z,4248.00
2018-05-14T12:08:34.944Z,4232.00
2018-05-14T12:09:35.156Z,4368.00
2018-05-14T12:10:35.275Z,4260.00
2018-05-14T12:11:35.495Z,4260.00
2018-05-14T12:12:35.662Z,4268.00
2018-05-14T12:13:35.853Z,4252.00
2018-05-14T12:14:36.020Z,4304.00
2018-05-14T12:15:36.210Z,4260.00
2018-05-14T12:16:36.404Z,4388.00
2018-05-14T12:17:36.619Z,4256.00
2018-05-14T12:18:36.844Z,4272.00
2018-05-14T12:19:36.956Z,4284.00
2018-05-14T12:20:37.130Z,4272.00
2018-05-14T12:21:37.342Z,4268.00
2018-05-14T12:22:37.521Z,4284.00
2018-05-14T12:23:37.711Z,4300.00
2018-05-14T12:24:37.898Z,4280.00